createdAt,value
2023-05-14T00:00:55.378Z,258.42
2023-05-14T00:03:24.002Z,251.43
2023-05-14T00:05:51.666Z,241.70
2023-05-14T00:08:17.978Z,253.77
2023-05-14T00:10:46.866Z,234.77
2023-05-14T00:13:13.193Z,239.13
2023-05-14T00:15:39.460Z,235.82
2023-05-14T00:18:05.790Z,236.75
2023-05-14T00:20:32.077Z,230.93
2023-05-14T00:22:58.380Z,227.20
2023-05-14T00:25:24.781Z,234.57
2023-05-14T00:27:53.122Z,231.57
2023-05-14T00:30:25.085Z,214.25
2023-05-14T00:32:51.531Z,225.55
2023-05-14T00:35:21.060Z,208.38
2023-05-14T00:37:48.932Z,212.13
2023-05-14T00:40:17.354Z,206.55
2023-05-14T00:42:45.967Z,216.98
2023-05-14T00:45:15.170Z,193.23
2023-05-14T00:47:42.772Z,193.13
2023-05-14T00:50:09.497Z,198.43
2023-05-14T00:52:38.914Z,184.77
2023-05-14T00:55:05.168Z,193.15
2023-05-14T00:57:35.114Z,183.05
2023-05-14T01:00:01.388Z,185.45
2023-05-14T01:02:30.637Z,186.68
2023-05-14T01:04:57.012Z,178.10
2023-05-14T01:07:28.062Z,180.63
2023-05-14T01:09:54.434Z,178.27
2023-05-14T01:12:20.690Z,175.77
2023-05-14T01:14:46.915Z,178.35
2023-05-14T01:17:13.149Z,168.95
2023-05-14T01:19:41.539Z,167.75
2023-05-14T01:22:09.769Z,159.85
2023-05-14T01:24:36.047Z,164.45
2023-05-14T01:27:02.366Z,160.63
2023-05-14T01:29:28.611Z,156.75
2023-05-14T01:31:54.909Z,161.10
2023-05-14T01:34:21.150Z,154.32
2023-05-14T01:36:49.243Z,153.65
2023-05-14T01:39:17.769Z,154.50
2023-05-14T01:41:46.370Z,149.65
2023-05-14T01:44:15.082Z,151.98
2023-05-14T01:46:41.366Z,148.15
2023-05-14T01:49:07.658Z,149.60
2023-05-14T01:51:33.898Z,149.85
2023-05-14T01:54:05.128Z,142.40
2023-05-14T01:56:34.170Z,142.80
2023-05-14T01:59:00.770Z,140.57
2023-05-14T02:01:27.068Z,143.80
2023-05-14T02:03:53.614Z,144.35
2023-05-14T02:06:19.952Z,136.93
2023-05-14T02:08:46.199Z,136.60
2023-05-14T02:11:16.756Z,140.23
2023-05-14T02:13:43.189Z,134.18
2023-05-14T02:16:10.743Z,134.88
2023-05-14T02:18:37.419Z,127.50
2023-05-14T02:21:04.790Z,125.38
2023-05-14T02:23:41.010Z,123.65
2023-05-14T02:26:09.600Z,128.68
2023-05-14T02:28:35.954Z,125.93
2023-05-14T02:31:02.248Z,126.57
2023-05-14T02:33:28.674Z,122.18
2023-05-14T02:35:55.141Z,119.97
2023-05-14T02:38:21.840Z,118.50
2023-05-14T02:40:48.082Z,116.10
2023-05-14T02:43:16.502Z,114.47
2023-05-14T02:45:42.792Z,112.80
2023-05-14T02:48:09.121Z,111.28
2023-05-14T02:50:37.292Z,112.88
2023-05-14T02:53:05.532Z,110.75
2023-05-14T02:55:35.758Z,107.72
2023-05-14T02:58:01.987Z,110.72
2023-05-14T03:00:29.933Z,108.93
2023-05-14T03:05:40.941Z,105.35
2023-05-14T03:08:07.178Z,103.88
2023-05-14T03:10:33.431Z,103.35
2023-05-14T03:13:04.638Z,100.43
2023-05-14T03:15:30.844Z,100.82
2023-05-14T03:17:57.138Z,102.07
2023-05-14T03:20:23.614Z,100.43
2023-05-14T03:22:49.967Z,97.38
2023-05-14T03:25:16.318Z,93.25
2023-05-14T03:27:42.545Z,94.95
2023-05-14T03:30:08.820Z,93.60
2023-05-14T03:32:35.177Z,92.05
2023-05-14T03:35:02.394Z,90.63
2023-05-14T03:37:30.751Z,89.22
2023-05-14T03:39:57.448Z,86.82
2023-05-14T03:42:23.696Z,84.85
2023-05-14T03:44:51.114Z,85.13
2023-05-14T03:47:17.373Z,82.50
2023-05-14T03:49:43.651Z,79.97
2023-05-14T03:52:10.104Z,80.72
2023-05-14T03:54:36.545Z,80.70
2023-05-14T03:57:02.780Z,81.65
2023-05-14T03:59:33.819Z,82.22
2023-05-14T04:02:00.035Z,78.78
2023-05-14T04:04:29.582Z,76.10
2023-05-14T04:06:55.937Z,77.65
2023-05-14T04:09:22.197Z,74.35
2023-05-14T04:11:48.428Z,77.82
2023-05-14T04:14:16.875Z,77.35
2023-05-14T04:16:44.578Z,72.60
2023-05-14T04:19:11.049Z,73.15
2023-05-14T04:21:37.387Z,71.78
2023-05-14T04:24:03.639Z,70.22
2023-05-14T04:26:30.462Z,72.57
2023-05-14T04:28:56.667Z,67.78
2023-05-14T04:31:26.485Z,69.60
2023-05-14T04:33:52.758Z,68.53
2023-05-14T04:36:19.054Z,67.13
2023-05-14T04:38:45.327Z,68.63
2023-05-14T04:41:11.929Z,66.95
2023-05-14T04:43:40.547Z,67.45
2023-05-14T04:46:07.302Z,65.60
2023-05-14T04:48:33.559Z,66.05
2023-05-14T04:51:06.830Z,65.60
2023-05-14T04:53:33.453Z,67.25
2023-05-14T04:55:59.745Z,64.97
2023-05-14T04:58:25.971Z,60.90
2023-05-14T05:00:52.254Z,63.67
2023-05-14T05:03:18.629Z,61.67
2023-05-14T05:05:44.946Z,60.65
2023-05-14T05:08:11.158Z,58.45
2023-05-14T05:10:37.435Z,58.95
2023-05-14T05:13:03.699Z,58.35
2023-05-14T05:15:29.918Z,58.55
2023-05-14T05:17:56.663Z,55.42
2023-05-14T05:20:23.099Z,56.45
2023-05-14T05:22:54.126Z,57.00
2023-05-14T05:25:20.341Z,56.80
2023-05-14T05:27:46.666Z,57.03
2023-05-14T05:30:13.783Z,54.97
2023-05-14T05:32:40.641Z,56.65
2023-05-14T05:35:08.087Z,83.90
2023-05-14T05:37:34.338Z,54.17
2023-05-14T05:40:00.598Z,47.10
2023-05-14T05:42:26.913Z,38.42
2023-05-14T05:44:53.141Z,29.92
2023-05-14T05:47:20.073Z,26.33
2023-05-14T05:49:47.639Z,25.50
2023-05-14T05:52:14.237Z,22.02
2023-05-14T05:54:44.919Z,18.00
2023-05-14T05:57:13.727Z,17.92
2023-05-14T05:59:39.993Z,39.78
2023-05-14T06:02:06.252Z,44.90
2023-05-14T06:04:32.531Z,38.35
2023-05-14T06:06:58.768Z,29.83
2023-05-14T06:09:26.760Z,30.58
2023-05-14T06:11:53.250Z,28.73
2023-05-14T06:14:19.520Z,29.52
2023-05-14T06:16:46.111Z,24.48
2023-05-14T06:19:16.041Z,18.63
2023-05-14T06:21:46.882Z,21.58
2023-05-14T06:24:16.658Z,16.48
2023-05-14T06:26:42.934Z,18.08
2023-05-14T06:29:09.195Z,15.25
2023-05-14T06:31:35.594Z,169.77
2023-05-14T06:34:01.979Z,171.45
2023-05-14T06:36:28.190Z,48.97
2023-05-14T06:38:54.466Z,35.22
2023-05-14T06:41:23.063Z,36.03
2023-05-14T06:43:49.475Z,30.58
2023-05-14T06:46:15.712Z,23.60
2023-05-14T06:48:42.008Z,26.85
2023-05-14T06:51:09.792Z,27.90
2023-05-14T06:53:36.043Z,26.10
2023-05-14T06:56:02.315Z,22.20
2023-05-14T06:58:29.802Z,28.35
2023-05-14T07:00:56.037Z,24.70
2023-05-14T07:03:22.300Z,30.33
2023-05-14T07:05:48.523Z,29.30
2023-05-14T07:08:14.732Z,34.90
2023-05-14T07:10:43.313Z,55.58
2023-05-14T07:13:12.351Z,95.97
2023-05-14T07:15:38.597Z,114.70
2023-05-14T07:18:04.849Z,102.15
2023-05-14T07:20:31.145Z,109.88
2023-05-14T07:22:57.398Z,111.13
2023-05-14T07:25:23.635Z,124.60
2023-05-14T07:27:49.864Z,157.52
2023-05-14T07:30:16.159Z,138.68
2023-05-14T07:32:42.906Z,146.13
2023-05-14T07:35:12.385Z,136.73
2023-05-14T07:37:38.613Z,120.13
2023-05-14T07:40:04.833Z,105.10
2023-05-14T07:42:36.396Z,110.35
2023-05-14T07:45:04.287Z,118.95
2023-05-14T07:47:30.765Z,104.05
2023-05-14T07:49:57.914Z,114.82
2023-05-14T07:52:24.153Z,96.93
2023-05-14T07:54:50.767Z,95.80
2023-05-14T07:57:17.110Z,102.57
2023-05-14T07:59:43.411Z,102.15
2023-05-14T08:02:09.717Z,97.68
2023-05-14T08:04:38.132Z,90.60
2023-05-14T08:07:05.119Z,83.18
2023-05-14T08:09:31.323Z,91.47
2023-05-14T08:11:58.127Z,77.43
2023-05-14T08:14:24.317Z,73.72
2023-05-14T08:16:50.612Z,76.32
2023-05-14T08:19:17.775Z,68.07
2023-05-14T08:21:44.086Z,70.45
2023-05-14T08:24:10.302Z,65.88
2023-05-14T08:26:36.562Z,68.13
2023-05-14T08:29:05.419Z,70.68
2023-05-14T08:31:31.957Z,66.28
2023-05-14T08:33:58.253Z,71.28
2023-05-14T08:36:24.470Z,64.00
2023-05-14T08:38:50.698Z,62.17
2023-05-14T08:41:16.942Z,60.50
2023-05-14T08:43:45.392Z,62.72
2023-05-14T08:46:11.649Z,72.00
2023-05-14T08:48:40.299Z,61.30
2023-05-14T08:51:06.565Z,70.10
2023-05-14T08:53:32.837Z,71.20
2023-05-14T08:56:00.037Z,72.32
2023-05-14T08:58:27.886Z,59.72
2023-05-14T09:00:54.111Z,64.13
2023-05-14T09:05:50.850Z,64.63
2023-05-14T09:08:18.086Z,67.63
2023-05-14T09:10:47.990Z,61.30
2023-05-14T09:13:14.198Z,57.17
2023-05-14T09:15:40.837Z,48.67
2023-05-14T09:18:07.191Z,49.13
2023-05-14T09:20:34.203Z,49.88
2023-05-14T09:23:00.455Z,42.67
2023-05-14T09:25:26.880Z,45.22
2023-05-14T09:27:53.068Z,46.58
2023-05-14T09:30:21.000Z,47.88
2023-05-14T09:32:47.584Z,39.13
2023-05-14T09:35:16.338Z,40.47
2023-05-14T09:37:42.591Z,39.60
2023-05-14T09:40:08.802Z,35.65
2023-05-14T09:42:36.993Z,32.45
2023-05-14T09:45:04.324Z,33.13
2023-05-14T09:47:30.605Z,30.90
2023-05-14T09:49:56.868Z,32.08
2023-05-14T09:52:25.324Z,31.33
2023-05-14T09:54:52.173Z,27.85
2023-05-14T09:57:18.399Z,26.70
2023-05-14T09:59:44.611Z,28.85
2023-05-14T10:02:11.625Z,25.23
2023-05-14T10:04:38.013Z,23.65
2023-05-14T10:07:04.553Z,22.45
2023-05-14T10:09:30.792Z,23.65
2023-05-14T10:11:57.070Z,21.83
2023-05-14T10:14:23.334Z,21.20
2023-05-14T10:16:49.601Z,20.58
2023-05-14T10:19:15.903Z,21.52
2023-05-14T10:21:42.148Z,19.50
2023-05-14T10:24:08.391Z,18.73
2023-05-14T10:26:34.641Z,16.27
2023-05-14T10:29:00.841Z,18.75
2023-05-14T10:31:27.144Z,16.23
2023-05-14T10:33:53.475Z,17.27
2023-05-14T10:36:19.762Z,16.80
2023-05-14T10:38:45.957Z,18.48
2023-05-14T10:41:12.192Z,18.90
2023-05-14T10:43:38.455Z,15.45
2023-05-14T10:46:08.043Z,14.95
2023-05-14T10:48:34.283Z,14.25
2023-05-14T10:51:00.513Z,12.88
2023-05-14T10:53:28.338Z,15.02
2023-05-14T10:55:54.557Z,11.43
2023-05-14T10:58:21.549Z,12.27
2023-05-14T11:00:47.800Z,11.82
2023-05-14T11:03:14.060Z,12.48
2023-05-14T11:05:40.283Z,11.20
2023-05-14T11:08:06.515Z,13.27
2023-05-14T11:10:33.780Z,11.20
2023-05-14T11:13:02.424Z,12.50
2023-05-14T11:15:28.629Z,9.45
2023-05-14T11:17:54.891Z,12.75
2023-05-14T11:20:21.118Z,13.52
2023-05-14T11:22:50.971Z,11.52
2023-05-14T11:25:17.309Z,10.63
2023-05-14T11:27:44.616Z,12.02
2023-05-14T11:30:10.889Z,9.77
2023-05-14T11:32:42.092Z,12.68
2023-05-14T11:35:08.324Z,11.60
2023-05-14T11:37:34.598Z,12.13
2023-05-14T11:40:00.846Z,13.07
2023-05-14T11:42:27.093Z,11.25
2023-05-14T11:44:53.375Z,11.13
2023-05-14T11:47:19.597Z,12.00
2023-05-14T11:49:45.866Z,12.27
2023-05-14T11:52:12.139Z,10.88
2023-05-14T11:54:38.395Z,10.70
2023-05-14T11:57:04.605Z,10.50
2023-05-14T11:59:30.827Z,9.57
2023-05-14T12:01:58.237Z,10.88
2023-05-14T12:04:24.496Z,10.38
2023-05-14T12:06:50.723Z,10.10
2023-05-14T12:11:47.306Z,9.45
2023-05-14T12:14:15.279Z,9.20
2023-05-14T12:16:41.646Z,8.65
2023-05-14T12:19:12.470Z,8.38
2023-05-14T12:21:38.730Z,8.15
2023-05-14T12:24:05.656Z,10.57
2023-05-14T12:26:31.935Z,9.05
2023-05-14T12:28:59.647Z,9.85
2023-05-14T12:31:26.272Z,8.07
2023-05-14T12:33:52.489Z,7.70
2023-05-14T12:36:21.906Z,11.75
2023-05-14T12:38:48.736Z,10.40
2023-05-14T12:41:15.463Z,8.88
2023-05-14T12:43:43.254Z,7.80
2023-05-14T12:46:09.486Z,8.60
2023-05-14T12:48:35.766Z,8.48
2023-05-14T12:51:02.963Z,9.38
2023-05-14T12:53:29.198Z,7.22
2023-05-14T12:55:55.442Z,7.38
2023-05-14T12:58:21.690Z,7.97
2023-05-14T13:00:48.044Z,7.90
2023-05-14T13:03:14.339Z,8.13
2023-05-14T13:05:40.609Z,7.72
2023-05-14T13:08:08.222Z,7.95
2023-05-14T13:10:34.441Z,8.07
2023-05-14T13:13:00.701Z,7.10
2023-05-14T13:15:26.994Z,8.45
2023-05-14T13:17:53.235Z,8.43
2023-05-14T13:20:19.485Z,6.95
2023-05-14T13:22:48.354Z,7.03
2023-05-14T13:25:14.615Z,6.75
2023-05-14T13:27:40.868Z,7.43
2023-05-14T13:30:07.072Z,7.20
2023-05-14T13:32:33.368Z,7.40
2023-05-14T13:34:59.655Z,7.53
2023-05-14T13:37:25.905Z,7.18
2023-05-14T13:39:52.130Z,6.10
2023-05-14T13:42:18.359Z,8.13
2023-05-14T13:44:45.901Z,6.53
2023-05-14T13:47:12.124Z,6.60
2023-05-14T13:49:38.390Z,7.55
2023-05-14T13:52:05.960Z,5.78
2023-05-14T13:54:32.165Z,6.05
2023-05-14T13:56:58.401Z,6.93
2023-05-14T13:59:24.727Z,7.68
2023-05-14T14:01:51.017Z,7.35
2023-05-14T14:04:17.267Z,8.50
2023-05-14T14:06:44.150Z,8.52
2023-05-14T14:09:10.402Z,6.97
2023-05-14T14:11:36.671Z,7.40
2023-05-14T14:14:02.899Z,6.13
2023-05-14T14:16:29.147Z,6.63
2023-05-14T14:18:58.586Z,232.07
2023-05-14T14:21:24.997Z,159.73
2023-05-14T14:23:53.594Z,246.75
2023-05-14T14:26:23.255Z,227.15
2023-05-14T14:28:49.483Z,208.07
2023-05-14T14:31:16.697Z,179.27
2023-05-14T14:33:44.693Z,154.02
2023-05-14T14:36:10.927Z,140.02
2023-05-14T14:38:37.150Z,154.35
2023-05-14T14:41:04.047Z,151.82
2023-05-14T14:43:33.018Z,134.25
2023-05-14T14:45:59.247Z,123.78
2023-05-14T14:48:27.876Z,112.97
2023-05-14T14:50:57.834Z,114.60
2023-05-14T14:53:28.824Z,98.95
2023-05-14T14:55:55.134Z,104.07
2023-05-14T14:58:21.401Z,100.50
2023-05-14T15:00:47.750Z,105.80
2023-05-14T15:03:15.442Z,100.65
2023-05-14T15:05:46.813Z,100.20
2023-05-14T15:08:13.011Z,99.50
2023-05-14T15:10:39.283Z,101.28
2023-05-14T15:13:05.493Z,95.85
2023-05-14T15:15:31.719Z,96.35
2023-05-14T15:17:58.011Z,92.40
2023-05-14T15:20:24.278Z,89.63
2023-05-14T15:22:50.518Z,87.90
2023-05-14T15:25:17.015Z,85.65
2023-05-14T15:27:43.738Z,88.07
2023-05-14T15:30:10.002Z,83.10
2023-05-14T15:32:36.320Z,81.10
2023-05-14T15:35:04.068Z,79.38
2023-05-14T15:37:31.619Z,78.93
2023-05-14T15:39:58.220Z,79.90
2023-05-14T15:42:24.470Z,75.25
2023-05-14T15:44:50.699Z,72.45
2023-05-14T15:47:17.001Z,68.53
2023-05-14T15:49:43.232Z,68.75
2023-05-14T15:52:09.455Z,69.10
2023-05-14T15:54:35.672Z,65.07
2023-05-14T15:57:04.536Z,63.13
2023-05-14T15:59:33.061Z,61.83
2023-05-14T16:01:59.339Z,57.65
2023-05-14T16:04:26.303Z,58.47
2023-05-14T16:06:52.606Z,55.72
2023-05-14T16:09:19.020Z,54.22
2023-05-14T16:11:45.231Z,53.38
2023-05-14T16:14:12.778Z,53.28
2023-05-14T16:16:39.345Z,48.95
2023-05-14T16:19:05.773Z,50.67
2023-05-14T16:21:34.169Z,47.10
2023-05-14T16:24:00.365Z,47.03
2023-05-14T16:26:26.626Z,46.20
2023-05-14T16:28:53.039Z,47.75
2023-05-14T16:31:19.282Z,43.72
2023-05-14T16:33:45.507Z,42.83
2023-05-14T16:36:11.753Z,41.58
2023-05-14T16:38:52.396Z,41.35
2023-05-14T16:41:26.944Z,41.38
2023-05-14T16:43:53.230Z,39.38
2023-05-14T16:46:19.476Z,38.60
2023-05-14T16:48:48.409Z,38.00
2023-05-14T16:51:15.267Z,38.63
2023-05-14T16:53:41.657Z,36.65
2023-05-14T16:56:08.911Z,34.72
2023-05-14T16:58:38.880Z,34.85
2023-05-14T17:01:10.768Z,35.38
2023-05-14T17:03:37.963Z,35.58
2023-05-14T17:06:04.210Z,34.63
2023-05-14T17:08:30.473Z,32.80
2023-05-14T17:10:58.455Z,34.78
2023-05-14T17:13:24.661Z,33.13
2023-05-14T17:15:50.929Z,32.13
2023-05-14T17:18:17.847Z,31.35
2023-05-14T17:20:44.131Z,30.50
2023-05-14T17:23:12.049Z,30.23
2023-05-14T17:25:38.374Z,29.60
2023-05-14T17:28:04.606Z,29.20
2023-05-14T17:30:30.794Z,29.52
2023-05-14T17:32:57.291Z,27.75
2023-05-14T17:35:23.805Z,28.05
2023-05-14T17:37:52.317Z,28.27
2023-05-14T17:40:18.552Z,28.13
2023-05-14T17:42:44.808Z,28.30
2023-05-14T17:45:11.016Z,27.83
2023-05-14T17:47:37.322Z,28.73
2023-05-14T17:50:04.543Z,27.90
2023-05-14T17:52:32.700Z,28.00
2023-05-14T17:55:00.194Z,28.33
2023-05-14T17:57:26.522Z,27.33
2023-05-14T17:59:52.825Z,27.30
2023-05-14T18:02:21.150Z,27.42
2023-05-14T18:04:47.544Z,26.85
2023-05-14T18:07:13.778Z,26.40
2023-05-14T18:09:40.033Z,27.13
2023-05-14T18:12:06.247Z,26.98
2023-05-14T18:14:32.526Z,26.95
2023-05-14T18:17:02.285Z,25.95
2023-05-14T18:19:28.535Z,27.13
2023-05-14T18:21:54.747Z,26.10
2023-05-14T18:24:21.077Z,25.40
2023-05-14T18:26:47.312Z,26.30
2023-05-14T18:29:14.868Z,25.60
2023-05-14T18:31:43.313Z,26.33
2023-05-14T18:34:09.644Z,24.45
2023-05-14T18:36:35.906Z,25.80
2023-05-14T18:39:02.127Z,23.88
2023-05-14T18:41:28.330Z,25.60
2023-05-14T18:43:54.553Z,24.92
2023-05-14T18:46:20.917Z,24.48
2023-05-14T18:48:47.198Z,24.83
2023-05-14T18:51:13.615Z,23.98
2023-05-14T18:53:43.325Z,24.38
2023-05-14T18:56:10.737Z,24.55
2023-05-14T18:58:38.668Z,24.30
2023-05-14T19:01:04.963Z,23.75
2023-05-14T19:03:33.744Z,23.55
2023-05-14T19:06:03.419Z,25.00
2023-05-14T19:08:32.713Z,23.45
2023-05-14T19:10:58.945Z,22.95
2023-05-14T19:13:25.464Z,22.40
2023-05-14T19:15:51.703Z,23.98
2023-05-14T19:18:20.557Z,23.65
2023-05-14T19:20:46.855Z,23.88
2023-05-14T19:23:15.248Z,24.70
2023-05-14T19:25:41.503Z,22.63
2023-05-14T19:28:08.551Z,23.48
2023-05-14T19:30:34.790Z,21.80
2023-05-14T19:33:01.541Z,22.40
2023-05-14T19:35:27.861Z,23.02
2023-05-14T19:37:54.196Z,23.23
2023-05-14T19:40:23.078Z,22.58
2023-05-14T19:42:49.374Z,21.80
2023-05-14T19:45:15.591Z,21.90
2023-05-14T19:47:41.872Z,21.40
2023-05-14T19:50:08.080Z,22.13
2023-05-14T19:52:34.324Z,21.10
2023-05-14T19:55:00.552Z,21.13
2023-05-14T19:57:27.855Z,20.80
2023-05-14T19:59:54.077Z,20.60
2023-05-14T20:02:20.325Z,20.17
2023-05-14T20:04:46.654Z,20.75
2023-05-14T20:07:12.881Z,20.15
2023-05-14T20:09:39.368Z,20.45
2023-05-14T20:12:05.612Z,21.48
2023-05-14T20:14:31.958Z,19.92
2023-05-14T20:16:58.228Z,17.60
2023-05-14T20:19:24.533Z,18.65
2023-05-14T20:21:50.900Z,19.33
2023-05-14T20:24:17.309Z,19.10
2023-05-14T20:26:43.630Z,18.75
2023-05-14T20:29:11.535Z,18.30
2023-05-14T20:31:37.752Z,18.42
2023-05-14T20:34:03.993Z,18.80
2023-05-14T20:36:30.267Z,16.85
2023-05-14T20:39:00.919Z,17.83
2023-05-14T20:41:27.356Z,17.38
2023-05-14T20:43:53.573Z,16.42
2023-05-14T20:46:21.905Z,16.73
2023-05-14T20:48:48.220Z,18.15
2023-05-14T20:51:14.744Z,16.30
2023-05-14T20:53:43.839Z,16.60
2023-05-14T20:56:10.093Z,16.33
2023-05-14T20:58:36.290Z,16.65
2023-05-14T21:01:02.754Z,16.30
2023-05-14T21:03:29.116Z,17.40
2023-05-14T21:06:00.293Z,16.83
2023-05-14T21:08:27.771Z,16.67
2023-05-14T21:10:53.993Z,17.00
2023-05-14T21:13:20.236Z,17.23
2023-05-14T21:15:46.459Z,16.25
2023-05-14T21:18:14.107Z,16.27
2023-05-14T21:20:40.403Z,16.55
2023-05-14T21:23:06.861Z,15.85
2023-05-14T21:25:34.202Z,15.02
2023-05-14T21:28:00.494Z,15.63
2023-05-14T21:30:26.772Z,15.23
2023-05-14T21:32:53.117Z,15.18
2023-05-14T21:35:22.895Z,15.70
2023-05-14T21:37:50.750Z,16.40
2023-05-14T21:40:16.979Z,14.88
2023-05-14T21:42:43.194Z,15.32
2023-05-14T21:45:12.076Z,15.73
2023-05-14T21:47:38.497Z,15.02
2023-05-14T21:50:08.368Z,15.10
2023-05-14T21:52:34.654Z,15.13
2023-05-14T21:55:00.854Z,14.43
2023-05-14T21:57:28.371Z,15.20
2023-05-14T21:59:56.019Z,14.90
2023-05-14T22:02:22.432Z,14.68
2023-05-14T22:04:48.700Z,14.63
2023-05-14T22:07:14.984Z,14.85
2023-05-14T22:09:41.353Z,14.68
2023-05-14T22:12:07.626Z,14.23
2023-05-14T22:14:35.567Z,13.55
2023-05-14T22:17:01.839Z,14.73
2023-05-14T22:19:30.224Z,13.57
2023-05-14T22:21:56.447Z,15.88
2023-05-14T22:24:25.690Z,14.50
2023-05-14T22:26:51.940Z,13.55
2023-05-14T22:29:18.186Z,14.15
2023-05-14T22:31:45.849Z,14.38
2023-05-14T22:34:12.154Z,13.82
2023-05-14T22:36:38.544Z,13.88
2023-05-14T22:39:04.871Z,14.10
2023-05-14T22:41:31.839Z,13.65
2023-05-14T22:43:58.153Z,13.57
2023-05-14T22:46:26.857Z,13.18
2023-05-14T22:48:53.406Z,13.85
2023-05-14T22:51:19.602Z,13.55
2023-05-14T22:53:45.804Z,13.23
2023-05-14T22:56:12.002Z,13.27
2023-05-14T22:58:38.252Z,14.15
2023-05-14T23:01:07.479Z,13.95
2023-05-14T23:03:33.719Z,14.20
2023-05-14T23:06:01.609Z,12.80
2023-05-14T23:08:30.855Z,12.88
2023-05-14T23:10:57.068Z,12.63
2023-05-14T23:13:23.281Z,12.07
2023-05-14T23:15:49.656Z,12.05
2023-05-14T23:18:16.040Z,13.43
2023-05-14T23:20:42.355Z,13.40
2023-05-14T23:23:14.663Z,13.50
2023-05-14T23:25:40.893Z,12.40
2023-05-14T23:28:07.779Z,13.10
2023-05-14T23:30:34.083Z,11.75
2023-05-14T23:33:05.324Z,13.02
2023-05-14T23:35:31.603Z,12.77
2023-05-14T23:37:59.171Z,12.52
2023-05-14T23:40:25.974Z,12.27
2023-05-14T23:42:54.172Z,11.80
2023-05-14T23:45:25.166Z,13.45
2023-05-14T23:47:51.741Z,11.88
2023-05-14T23:50:18.143Z,12.77
2023-05-14T23:52:45.502Z,13.02
2023-05-14T23:55:11.774Z,13.15
2023-05-14T23:57:38.001Z,12.90
